Aspinwall, PA

11:55 AM EST on December 18, 2014 (GMT -0500)
Allegheny County | Change Station
CLOSE
Current Station
Airport
Location: Pittsburgh Allegheny Co.,
Elevation: 1253 ft
Nearby Weather Stations

Elev 1253 ft 40.35 °N, 79.92 °W | Updated 14 minutes ago

Overcast
Overcast
28 °F
Feels Like 20 °F
N
8
Wind Variable Wind from West

Today
High -- | Low -- °F
--% Chance of Precip.
Yesterday
High -- | Low -- °F
Precip. -- in
7:37 AM 4:54 PM
Waning Crescent, 13% visible
Pressure 30.17 in
Visibility 2.5 miles
Clouds Scattered Clouds 1300 ft
Mostly Cloudy 2100 ft
Overcast 3100 ft
Windchill 20 °F
Dew Point 21 °F
Humidity 75%
Rainfall 0.00 in
Snow Depth Not available.
UV 1 out of 12
Pollen .10 out of 12
Air Quality Not available.
Flu Activity Not available.
SPECI KAGC 181641Z 26007KT 2 1/2SM BR SCT013 BKN021 OVC031 M02/M06 A3017 RMK AO2 SNB02E11 P0000 T10221061

More Conditions Fewer Conditions

Pressure 30.17 in
Visibility 2.5 miles
Clouds Scattered Clouds 1300 ft
Mostly Cloudy 2100 ft
Overcast 3100 ft
Windchill 20 °F
Dew Point 21 °F
Humidity 75%
Rainfall 0.00 in
Snow Depth Not available.
UV 1 out of 12
Pollen .10 out of 12
Air Quality Not available.
Flu Activity Not available.
SPECI KAGC 181641Z 26007KT 2 1/2SM BR SCT013 BKN021 OVC031 M02/M06 A3017 RMK AO2 SNB02E11 P0000 T10221061

More Conditions Fewer Conditions

10-Day Weather Forecast

Almanac

Astronomy

Dec. 18, 2014 Rise Set
Actual Time
Civil Twilight
Nautical Twilight
Astronomical Twilight
Moon
Length of Visible Light
Length of Day
Tomorrow will be .
, % of the Moon is Illuminated

Today's Extremes

State Highs State Lows

Community

WunderPhotos

Upload Photos

1,778,960 photos uploaded!

WunderBlogs® & News

Nearby

Air Quality

  Air Quality AQ Index Pollutant
Not available.

Snow Depth

Station Depth Elevation

Earthquake Activity

City Distance Mag. Time & Date
Minimum magnitude displayed is 2.5.

Coastal Water Temperatures

Place Temperature

Nearby Weather Stations